Time;durP1;ratioP1;P1;durP2;ratioP2;P2;SDS_P1;SDS_P2;PMS_P1;PMS_P2;Temp;Humidity;BMP_temperature;BMP_pressure;BME280_temperature;BME280_humidity;BME280_pressure;Samples;Min_cycle;Max_cycle;Signal;HPM_P1;HPM_P2
2021/05/10 00:01:36;;;;;;;1.88;1.30;;;;;;;21.47;33.13;94748.78;4976462;28;20208;-85
2021/05/10 00:04:03;;;;;;;1.67;1.00;;;;;;;21.46;33.16;94743.78;4992292;28;20555;-84
2021/05/10 00:06:29;;;;;;;1.23;1.10;;;;;;;21.40;33.29;94740.38;4994884;28;20220;-84
2021/05/10 00:08:56;;;;;;;1.63;1.20;;;;;;;21.43;33.39;94747.72;4995998;28;20265;-84
2021/05/10 00:11:27;;;;;;;1.77;1.25;;;;;;;21.42;33.45;94745.38;4995073;28;20686;-84
2021/05/10 00:13:54;;;;;;;2.10;1.23;;;;;;;21.39;33.54;94746.69;4995747;28;20749;-84
2021/05/10 00:16:20;;;;;;;1.40;1.05;;;;;;;21.35;33.73;94750.91;4994618;28;20456;-86
2021/05/10 00:18:47;;;;;;;3.28;1.20;;;;;;;21.29;33.72;94742.25;4994790;28;20196;-86
2021/05/10 00:21:13;;;;;;;1.27;1.17;;;;;;;21.22;34.25;94748.78;4994782;28;20254;-86
2021/05/10 00:23:39;;;;;;;1.38;1.27;;;;;;;21.29;33.74;94752.72;4994750;28;20195;-85
2021/05/10 00:26:05;;;;;;;2.28;1.27;;;;;;;21.26;34.12;94747.22;4994833;28;20634;-83
2021/05/10 00:28:32;;;;;;;2.30;1.13;;;;;;;21.25;34.10;94748.28;4994897;28;20196;-85
2021/05/10 00:30:58;;;;;;;1.10;1.00;;;;;;;21.28;34.13;94747.75;4995924;28;20203;-85
2021/05/10 00:33:24;;;;;;;1.67;1.20;;;;;;;21.22;34.40;94746.97;4994937;28;20203;-86
2021/05/10 00:35:50;;;;;;;1.27;1.10;;;;;;;21.22;34.35;94746.97;4996557;28;20223;-85
2021/05/10 00:38:16;;;;;;;1.80;1.30;;;;;;;21.18;34.89;94745.09;4995629;28;20213;-84
2021/05/10 00:40:42;;;;;;;2.47;1.23;;;;;;;21.19;34.97;94738.81;4996114;28;20315;-85
2021/05/10 00:43:08;;;;;;;1.00;1.00;;;;;;;21.18;35.15;94743.25;4996060;28;20199;-84
2021/05/10 00:45:35;;;;;;;1.20;1.10;;;;;;;21.17;36.10;94740.91;4993861;28;20239;-84
2021/05/10 00:48:01;;;;;;;1.35;1.20;;;;;;;21.13;35.60;94751.13;4993014;28;20203;-84
2021/05/10 00:50:27;;;;;;;1.52;1.30;;;;;;;21.10;35.71;94749.03;4995216;28;20196;-84
2021/05/10 00:52:53;;;;;;;1.45;1.20;;;;;;;21.03;37.15;94751.13;4995810;28;20191;-84
2021/05/10 00:55:19;;;;;;;1.52;1.25;;;;;;;20.99;36.43;94750.84;4995337;28;20226;-84
2021/05/10 00:57:49;;;;;;;1.65;1.30;;;;;;;20.95;36.45;94747.22;4994025;28;20199;-84
2021/05/10 01:00:16;;;;;;;3.42;1.42;;;;;;;20.91;36.03;94755.84;4993744;28;20266;-87
2021/05/10 01:02:44;;;;;;;1.50;1.30;;;;;;;20.91;35.83;94750.59;4994146;28;20207;-85
2021/05/10 01:05:11;;;;;;;1.45;1.13;;;;;;;20.86;36.52;94755.84;4995404;28;20200;-86
2021/05/10 01:07:37;;;;;;;1.40;1.27;;;;;;;20.79;36.93;94755.28;4995363;28;20257;-86
2021/05/10 01:10:07;;;;;;;1.65;1.30;;;;;;;20.72;37.81;94752.94;4995120;28;20222;-85
2021/05/10 01:12:33;;;;;;;1.63;1.10;;;;;;;20.67;37.37;94750.31;4994623;28;20206;-84
2021/05/10 01:14:59;;;;;;;4.10;1.15;;;;;;;20.63;37.05;94746.63;4994446;28;20226;-87
2021/05/10 01:17:25;;;;;;;2.53;1.20;;;;;;;20.61;36.38;94746.91;4994930;28;20262;-85
2021/05/10 01:19:52;;;;;;;3.20;1.20;;;;;;;20.63;36.19;94742.19;4994212;28;20215;-84
2021/05/10 01:22:19;;;;;;;1.20;1.10;;;;;;;20.59;36.24;94735.16;4994682;28;20196;-85
2021/05/10 01:24:46;;;;;;;1.60;1.20;;;;;;;20.55;36.08;94737.50;4993142;28;20227;-85
2021/05/10 01:27:12;;;;;;;2.25;1.30;;;;;;;20.46;36.12;94741.66;4994019;28;20222;-87
2021/05/10 01:29:38;;;;;;;3.90;1.38;;;;;;;20.49;36.03;94737.72;4994374;28;20239;-84
2021/05/10 01:32:05;;;;;;;2.40;1.40;;;;;;;20.52;35.77;94740.63;4993187;28;20215;-85
2021/05/10 01:34:31;;;;;;;1.80;1.30;;;;;;;20.49;35.54;94737.72;4992936;28;20227;-85
2021/05/10 01:36:57;;;;;;;1.20;1.10;;;;;;;20.55;35.64;94736.72;4993504;28;20715;-83
2021/05/10 01:39:23;;;;;;;1.48;1.20;;;;;;;20.53;35.28;94738.78;4994001;28;20224;-85
2021/05/10 01:41:50;;;;;;;1.30;1.10;;;;;;;20.53;35.14;94736.19;4993827;28;20251;-86
2021/05/10 01:44:16;;;;;;;1.45;1.30;;;;;;;20.51;35.04;94741.66;4995584;28;20258;-87
2021/05/10 01:46:42;;;;;;;1.10;1.00;;;;;;;20.55;35.37;94736.72;4993815;28;20231;-85
2021/05/10 01:49:09;;;;;;;1.35;1.10;;;;;;;20.47;34.98;94737.19;4992799;28;20230;-87
2021/05/10 01:51:36;;;;;;;1.27;1.17;;;;;;;20.54;35.17;94735.13;4992665;28;20803;-85
2021/05/10 01:54:02;;;;;;;1.35;1.20;;;;;;;20.52;35.00;94745.84;4994046;28;20204;-85
2021/05/10 01:56:28;;;;;;;2.75;1.27;;;;;;;20.46;34.68;94741.66;4992499;28;20227;-86
2021/05/10 01:58:55;;;;;;;2.15;1.35;;;;;;;20.47;34.77;94742.44;4992988;28;20218;-84
2021/05/10 02:01:22;;;;;;;1.30;1.08;;;;;;;20.47;34.83;94745.84;4991984;28;20196;-86
2021/05/10 02:03:48;;;;;;;1.40;1.15;;;;;;;20.49;34.92;94743.75;4993070;28;20242;-84
2021/05/10 02:06:14;;;;;;;1.30;1.20;;;;;;;20.53;34.81;94736.97;4992546;28;20231;-83
2021/05/10 02:08:40;;;;;;;2.03;1.40;;;;;;;20.47;34.93;94743.22;4992920;28;20575;-85
2021/05/10 02:11:07;;;;;;;1.98;1.27;;;;;;;20.47;34.91;94745.84;4992277;28;20196;-84
2021/05/10 02:13:33;;;;;;;1.65;1.20;;;;;;;20.54;34.74;94746.38;4992998;28;20206;-87
2021/05/10 02:16:04;;;;;;;1.25;1.15;;;;;;;20.54;34.83;94745.59;4993419;28;20224;-84
2021/05/10 02:18:31;;;;;;;1.30;1.20;;;;;;;20.42;34.65;94742.41;4991491;28;20941;-86
2021/05/10 02:20:57;;;;;;;3.53;1.50;;;;;;;20.47;34.98;94743.22;4993317;28;20223;-86
2021/05/10 02:23:26;;;;;;;1.60;1.20;;;;;;;20.40;35.07;94742.66;4993306;28;20210;-84
2021/05/10 02:25:54;;;;;;;1.20;1.10;;;;;;;20.40;34.83;94739.28;4991543;28;20242;-85
2021/05/10 02:28:23;;;;;;;1.63;1.15;;;;;;;20.48;34.70;94736.94;4993652;28;20200;-86
2021/05/10 02:30:50;;;;;;;2.63;1.30;;;;;;;20.42;34.88;94737.19;4992243;28;20266;-84
2021/05/10 02:33:19;;;;;;;2.28;1.10;;;;;;;20.40;34.53;94736.69;4991339;28;20564;-85
2021/05/10 02:35:47;;;;;;;2.42;1.30;;;;;;;20.38;34.61;94741.38;4991500;28;20291;-85
2021/05/10 02:38:14;;;;;;;1.55;1.20;;;;;;;20.42;34.48;94727.50;4991247;28;20211;-85
2021/05/10 02:40:40;;;;;;;1.30;1.15;;;;;;;20.40;34.63;94734.81;4991969;28;20215;-84
2021/05/10 02:43:07;;;;;;;3.17;1.15;;;;;;;20.37;34.59;94730.13;4992378;28;20200;-85
2021/05/10 02:45:34;;;;;;;1.67;1.20;;;;;;;20.39;34.30;94730.66;4991594;28;20226;-85
2021/05/10 02:48:01;;;;;;;1.70;1.20;;;;;;;20.42;34.17;94726.72;4990881;28;20826;-85
2021/05/10 02:50:28;;;;;;;1.55;1.10;;;;;;;20.44;34.52;94727.25;4990700;28;20199;-84
2021/05/10 02:52:55;;;;;;;1.67;1.23;;;;;;;20.47;34.12;94737.19;4991341;28;20207;-85
2021/05/10 02:55:21;;;;;;;1.88;1.23;;;;;;;20.49;34.22;94729.88;4991640;28;20223;-85
2021/05/10 02:57:48;;;;;;;1.27;1.00;;;;;;;20.47;34.10;94731.97;4990643;28;20207;-85
2021/05/10 03:00:16;;;;;;;1.52;1.30;;;;;;;20.46;33.88;94725.97;4991378;28;20243;-84
2021/05/10 03:02:42;;;;;;;1.23;1.13;;;;;;;20.51;33.87;94720.75;4990567;28;20199;-84
2021/05/10 03:05:11;;;;;;;1.63;1.20;;;;;;;20.47;33.66;94726.75;4990679;28;20542;-86
2021/05/10 03:07:39;;;;;;;1.10;1.05;;;;;;;20.54;33.94;94732.53;4991460;28;20210;-84
2021/05/10 03:10:08;;;;;;;2.58;1.27;;;;;;;20.47;33.43;94727.53;4990526;28;20204;-84
2021/05/10 03:12:34;;;;;;;1.33;1.23;;;;;;;20.50;33.74;94723.63;4990811;28;20265;-85
2021/05/10 03:15:00;;;;;;;1.98;1.10;;;;;;;20.45;33.55;94731.44;4991180;28;20196;-84
2021/05/10 03:17:26;;;;;;;2.05;1.23;;;;;;;20.43;33.86;94725.69;4991086;28;20211;-85
2021/05/10 03:19:52;;;;;;;1.83;1.30;;;;;;;20.44;33.54;94722.03;4991278;28;20215;-85
2021/05/10 03:22:18;;;;;;;2.70;1.52;;;;;;;20.51;33.70;94717.34;4991023;28;20215;-85
2021/05/10 03:24:45;;;;;;;1.67;1.15;;;;;;;20.54;33.71;94722.84;4988481;28;20300;-84
2021/05/10 03:27:11;;;;;;;2.55;1.05;;;;;;;20.56;33.02;94722.59;4988723;28;20829;-85
2021/05/10 03:29:37;;;;;;;2.88;1.25;;;;;;;20.49;33.09;94722.81;4990537;28;20191;-84
2021/05/10 03:32:04;;;;;;;1.42;1.20;;;;;;;20.56;33.41;94733.84;4993962;28;20203;-85
2021/05/10 03:34:30;;;;;;;1.30;1.20;;;;;;;20.58;33.31;94736.97;4994025;28;20199;-84
2021/05/10 03:36:56;;;;;;;1.20;1.00;;;;;;;20.58;33.31;94736.97;4993558;28;20757;-84
2021/05/10 03:39:21;;;;;;;2.65;1.48;;;;;;;20.63;33.61;94744.81;4993549;28;20637;-85
2021/05/10 03:41:48;;;;;;;2.03;1.30;;;;;;;20.61;32.93;94744.28;4998074;28;20622;-85
2021/05/10 03:44:14;;;;;;;3.22;1.30;;;;;;;20.59;33.25;94743.75;5001753;28;20250;-84
2021/05/10 03:46:40;;;;;;;1.75;1.33;;;;;;;20.62;33.16;94745.84;4995189;28;20216;-85
2021/05/10 03:49:06;;;;;;;1.45;1.23;;;;;;;20.65;33.14;94741.94;4996297;28;20418;-85
2021/05/10 03:51:32;;;;;;;4.55;1.40;;;;;;;20.60;33.34;94731.47;4995916;28;20199;-88
2021/05/10 03:53:58;;;;;;;1.30;1.20;;;;;;;20.57;33.27;94727.56;4995707;28;20560;-85
2021/05/10 03:56:24;;;;;;;2.60;1.30;;;;;;;20.61;33.23;94738.25;4994789;28;20598;-84
2021/05/10 03:58:50;;;;;;;2.45;1.30;;;;;;;20.60;33.05;94737.47;4994387;28;20686;-86
2021/05/10 04:01:16;;;;;;;1.98;1.30;;;;;;;20.58;33.08;94733.56;4995158;28;20219;-85
2021/05/10 04:03:47;;;;;;;0.95;0.95;;;;;;;20.51;33.25;94731.19;4995633;28;20261;-85
2021/05/10 04:06:31;;;;;;;4.07;1.50;;;;;;;20.49;33.36;94738.53;4995273;28;20250;-85
2021/05/10 04:14:32;;;;;;;1.73;1.30;;;;;;;20.52;33.50;94732.00;4995471;28;20765;-85
2021/05/10 04:16:59;;;;;;;2.13;1.27;;;;;;;20.47;33.46;94740.59;4997099;28;20219;-85
2021/05/10 04:19:25;;;;;;;1.65;1.35;;;;;;;20.50;33.50;94747.94;4995949;28;20265;-85
2021/05/10 04:21:51;;;;;;;2.03;1.40;;;;;;;20.58;33.01;94749.28;4996965;28;20196;-87
2021/05/10 04:24:17;;;;;;;2.47;1.40;;;;;;;20.59;33.30;94754.22;4995025;28;20195;-85
2021/05/10 04:26:43;;;;;;;1.63;1.25;;;;;;;20.61;33.13;94746.91;4994372;28;20238;-85
2021/05/10 04:29:08;;;;;;;2.40;1.23;;;;;;;20.66;33.40;94735.66;4995827;28;20219;-86
2021/05/10 04:31:35;;;;;;;2.40;1.30;;;;;;;20.64;33.39;94735.13;4996419;28;20207;-84
2021/05/10 04:34:01;;;;;;;1.38;1.20;;;;;;;20.69;33.20;94730.69;4996705;28;20203;-87
2021/05/10 04:36:27;;;;;;;1.42;1.20;;;;;;;20.73;32.90;94730.19;4991906;28;20215;-88
2021/05/10 04:38:53;;;;;;;2.05;1.30;;;;;;;20.74;33.06;94732.53;4991778;28;20206;-84
2021/05/10 04:41:19;;;;;;;2.80;1.20;;;;;;;20.83;33.19;94732.78;4994884;28;20727;-86
2021/05/10 04:43:45;;;;;;;2.45;1.25;;;;;;;20.81;33.13;94742.72;4999770;28;20805;-85
2021/05/10 04:46:11;;;;;;;2.60;1.10;;;;;;;20.87;33.09;94747.72;4996767;28;20224;-87
2021/05/10 04:48:38;;;;;;;1.58;1.48;;;;;;;20.89;33.04;94748.25;4996407;28;20230;-83
2021/05/10 04:51:04;;;;;;;2.25;1.42;;;;;;;20.96;33.05;94759.25;4995131;28;20203;-84
2021/05/10 04:53:31;;;;;;;3.80;1.30;;;;;;;21.03;32.93;94754.53;4998212;28;20679;-86
2021/05/10 04:55:57;;;;;;;1.85;1.38;;;;;;;21.06;33.20;94758.47;4990183;28;20274;-87
2021/05/10 04:58:23;;;;;;;1.33;1.23;;;;;;;21.10;33.28;94761.34;4979659;28;20221;-89
2021/05/10 05:00:49;;;;;;;12.73;11.43;;;;;;;21.04;33.07;94769.19;4995038;28;20279;-89
2021/05/10 05:03:16;;;;;;;8.60;7.80;;;;;;;21.11;33.27;94766.31;5000784;28;20214;-89
2021/05/10 05:05:43;;;;;;;1.90;1.60;;;;;;;21.04;33.78;94765.78;4998031;28;20215;-85
2021/05/10 05:08:09;;;;;;;2.72;1.70;;;;;;;21.12;34.05;94780.19;4999200;28;20199;-87
2021/05/10 05:10:35;;;;;;;3.42;1.50;;;;;;;21.26;33.90;94783.88;4998622;28;20211;-86
2021/05/10 05:13:01;;;;;;;1.85;1.50;;;;;;;21.30;33.90;94785.72;4997776;28;20207;-85
2021/05/10 05:15:27;;;;;;;2.38;1.35;;;;;;;21.27;33.91;94786.25;4997856;28;20290;-85
2021/05/10 05:17:53;;;;;;;2.45;1.70;;;;;;;21.21;33.67;94789.13;4998583;28;20207;-85
2021/05/10 05:20:19;;;;;;;1.80;1.42;;;;;;;21.12;33.83;94780.19;4997278;28;20228;-84
2021/05/10 05:22:46;;;;;;;1.95;1.58;;;;;;;21.09;34.20;94786.72;4997575;28;20250;-88
2021/05/10 05:25:15;;;;;;;3.67;1.58;;;;;;;21.15;34.00;94793.56;4997494;28;20292;-87
2021/05/10 05:27:41;;;;;;;3.05;1.67;;;;;;;21.14;34.48;94791.97;4999384;28;20634;-84
2021/05/10 05:30:09;;;;;;;2.47;1.70;;;;;;;21.25;34.12;94793.56;4999227;28;20267;-88
2021/05/10 05:32:35;;;;;;;2.05;1.52;;;;;;;21.36;34.29;94804.81;4997958;28;20215;-84
2021/05/10 05:35:02;;;;;;;2.95;1.52;;;;;;;21.38;34.05;94805.34;4997557;28;20203;-84
2021/05/10 05:37:28;;;;;;;2.40;1.58;;;;;;;21.47;34.29;94806.41;4997188;28;20214;-88
2021/05/10 05:39:55;;;;;;;2.33;1.70;;;;;;;21.61;33.95;94807.41;4999392;28;20255;-86
2021/05/10 05:42:22;;;;;;;2.45;1.50;;;;;;;21.73;33.45;94809.78;4996643;28;20199;-86
2021/05/10 05:44:51;;;;;;;1.95;1.42;;;;;;;21.70;33.00;94808.47;4998485;28;20242;-85
2021/05/10 05:47:24;;;;;;;3.60;1.52;;;;;;;21.82;33.30;94808.16;4998078;28;20227;-87
2021/05/10 05:49:50;;;;;;;5.13;1.60;;;;;;;21.94;33.32;94816.53;4996811;28;20196;-85
2021/05/10 05:52:16;;;;;;;3.13;1.50;;;;;;;22.02;32.84;94812.63;4997128;28;20207;-86
2021/05/10 05:54:42;;;;;;;2.17;1.50;;;;;;;22.17;33.40;94820.44;4996933;28;20687;-87
2021/05/10 05:57:09;;;;;;;2.30;1.45;;;;;;;22.18;32.98;94827.25;4996248;28;20219;-86
2021/05/10 05:59:35;;;;;;;2.47;1.30;;;;;;;22.20;33.46;94819.91;4995405;28;20223;-89
2021/05/10 06:02:01;;;;;;;4.28;1.25;;;;;;;22.22;33.09;94824.88;4997907;28;20199;-88
2021/05/10 06:07:11;;;;;;;6.32;1.60;;;;;;;22.12;33.26;94830.16;4994079;28;20223;-87
2021/05/10 06:09:37;;;;;;;2.20;1.38;;;;;;;22.14;32.91;94828.03;4997787;28;20786;-87
2021/05/10 06:12:03;;;;;;;2.03;1.50;;;;;;;22.23;32.99;94821.97;4997665;28;20207;-88
2021/05/10 06:14:30;;;;;;;6.78;1.42;;;;;;;22.38;34.00;94824.53;4996965;28;20675;-88
2021/05/10 06:17:01;;;;;;;3.80;1.50;;;;;;;22.44;33.54;94820.06;4994882;28;20227;-87
2021/05/10 06:19:27;;;;;;;3.65;1.75;;;;;;;22.49;33.30;94821.91;4997103;28;20593;-87
2021/05/10 06:21:53;;;;;;;5.30;1.40;;;;;;;22.49;33.03;94820.06;4993672;28;20207;-84
2021/05/10 06:24:21;;;;;;;5.50;1.42;;;;;;;22.58;33.59;94830.75;4995669;28;20275;-88
2021/05/10 06:26:48;;;;;;;4.30;1.63;;;;;;;22.61;33.48;94831.00;4994609;28;20238;-87
2021/05/10 06:29:19;;;;;;;5.90;1.60;;;;;;;22.77;33.38;94823.06;4995154;28;20207;-87
2021/05/10 06:31:49;;;;;;;2.47;1.50;;;;;;;22.87;33.89;94825.66;4992565;28;20293;-86
2021/05/10 06:34:39;;;;;;;3.05;1.40;;;;;;;22.93;33.07;94820.09;4993028;28;20235;-83
2021/05/10 06:37:05;;;;;;;2.92;1.55;;;;;;;23.03;33.06;94825.28;4992564;28;20235;-85
2021/05/10 06:39:36;;;;;;;8.88;1.73;;;;;;;23.08;33.22;94830.53;4992297;28;20334;-86
2021/05/10 06:42:02;;;;;;;4.32;1.45;;;;;;;23.05;33.04;94832.91;4993275;28;20801;-84
2021/05/10 06:44:33;;;;;;;2.13;1.50;;;;;;;23.11;33.24;94828.38;4992615;28;20302;-85
2021/05/10 06:47:00;;;;;;;3.00;1.58;;;;;;;23.20;33.06;94827.53;4994159;28;20219;-83
2021/05/10 06:49:26;;;;;;;2.60;1.30;;;;;;;23.24;32.84;94833.03;4992643;28;20212;-84
2021/05/10 06:51:52;;;;;;;3.28;1.95;;;;;;;23.33;33.46;94834.00;4992384;28;20214;-85
2021/05/10 06:54:18;;;;;;;2.95;1.77;;;;;;;23.46;32.67;94843.91;4991724;28;20230;-86
2021/05/10 06:56:44;;;;;;;2.30;1.40;;;;;;;23.60;33.12;94847.47;4988725;28;20227;-87
2021/05/10 06:59:10;;;;;;;1.70;1.60;;;;;;;23.66;32.89;94849.03;4990337;28;20240;-87
2021/05/10 07:01:36;;;;;;;3.25;1.42;;;;;;;23.78;33.12;94848.66;4990979;28;20238;-85
2021/05/10 07:04:03;;;;;;;4.50;1.50;;;;;;;23.87;33.00;94854.84;4992668;28;20679;-85
2021/05/10 07:06:29;;;;;;;3.22;1.52;;;;;;;23.90;32.26;94856.16;4995581;28;20737;-85
2021/05/10 07:08:55;;;;;;;7.57;1.70;;;;;;;23.96;32.54;94868.19;4996596;28;20203;-85
2021/05/10 07:11:21;;;;;;;4.50;1.73;;;;;;;23.97;32.93;94856.63;4996524;28;20710;-86
2021/05/10 07:13:47;;;;;;;4.72;1.80;;;;;;;23.96;32.21;94862.94;4995914;28;20781;-88
2021/05/10 07:16:12;;;;;;;2.63;1.48;;;;;;;23.98;32.12;94858.97;4995624;28;20699;-86
2021/05/10 07:18:38;;;;;;;5.70;1.77;;;;;;;24.03;32.32;94863.41;4995994;28;20199;-86
2021/05/10 07:21:05;;;;;;;2.95;1.77;;;;;;;24.08;32.34;94858.84;4995127;28;20297;-86
2021/05/10 07:23:32;;;;;;;3.35;1.50;;;;;;;24.03;31.89;94871.28;4997241;28;20207;-87
2021/05/10 07:25:58;;;;;;;3.35;1.38;;;;;;;24.05;31.80;94877.81;4997694;28;20255;-87
2021/05/10 07:28:24;;;;;;;3.95;1.33;;;;;;;24.09;31.48;94876.22;4999200;28;20213;-86
2021/05/10 07:30:50;;;;;;;1.55;1.30;;;;;;;24.17;31.75;94866.16;4997441;28;20546;-87
2021/05/10 07:33:16;;;;;;;4.38;1.63;;;;;;;24.30;32.02;94868.13;4998850;28;20203;-87
2021/05/10 07:35:42;;;;;;;2.50;1.20;;;;;;;24.39;31.00;94871.72;4998328;28;20223;-87
2021/05/10 07:38:10;;;;;;;3.28;1.48;;;;;;;24.55;31.42;94859.97;4998253;28;20235;-87
2021/05/10 07:40:36;;;;;;;5.40;1.88;;;;;;;24.71;31.88;94850.00;4998323;28;20226;-88
2021/05/10 07:43:02;;;;;;;3.00;1.40;;;;;;;24.82;31.44;94858.59;4998112;28;20204;-86
2021/05/10 07:45:29;;;;;;;3.05;1.50;;;;;;;24.87;30.74;94851.38;4999621;28;20231;-86
2021/05/10 07:47:55;;;;;;;3.72;1.75;;;;;;;24.92;30.00;94853.97;5000154;28;20211;-85
2021/05/10 07:50:23;;;;;;;6.30;1.40;;;;;;;25.01;29.62;94847.03;4999471;28;20200;-85
2021/05/10 07:52:49;;;;;;;3.53;1.42;;;;;;;25.16;29.26;94847.88;4998822;28;20207;-85
2021/05/10 07:55:17;;;;;;;4.75;1.65;;;;;;;25.28;29.66;94848.19;4999276;28;20555;-87
2021/05/10 07:57:44;;;;;;;6.15;1.63;;;;;;;25.46;29.69;94837.63;4999651;28;20214;-85
2021/05/10 08:00:28;;;;;;;1.27;1.17;;;;;;;25.57;28.64;94843.53;4999366;28;20235;-87
2021/05/10 08:02:59;;;;;;;2.78;1.38;;;;;;;25.68;28.82;94834.41;4998990;28;20259;-85
2021/05/10 08:05:25;;;;;;;3.20;1.35;;;;;;;25.86;29.04;94832.78;5000419;28;20663;-87
2021/05/10 08:07:51;;;;;;;2.13;1.65;;;;;;;26.01;28.51;94839.63;5000587;28;20207;-87
2021/05/10 08:10:18;;;;;;;2.70;1.33;;;;;;;26.13;28.59;94832.03;5000127;28;20199;-85
2021/05/10 08:12:47;;;;;;;1.75;1.35;;;;;;;26.27;28.47;94824.91;5001246;28;20200;-86
2021/05/10 08:18:10;;;;;;;3.08;1.25;;;;;;;26.33;27.14;94818.50;5246035;22;20230;-87
2021/05/10 08:20:56;;;;;;;2.38;1.42;;;;;;;26.44;28.32;94817.19;5019899;28;20250;-86
2021/05/10 08:23:22;;;;;;;3.72;1.20;;;;;;;26.56;27.45;94815.91;5020570;28;20264;-86
2021/05/10 08:25:50;;;;;;;3.35;1.40;;;;;;;26.66;27.04;94805.16;5017627;28;20609;-85
2021/05/10 08:28:16;;;;;;;5.25;1.85;;;;;;;26.78;26.67;94797.47;5019449;28;20211;-87
2021/05/10 08:30:42;;;;;;;4.53;1.60;;;;;;;26.84;26.13;94798.94;5019682;28;20195;-88
2021/05/10 08:33:08;;;;;;;4.57;1.52;;;;;;;26.90;26.27;94800.41;5019720;28;20230;-86
2021/05/10 08:35:34;;;;;;;3.60;1.67;;;;;;;26.93;26.27;94804.31;5021297;28;20227;-86
2021/05/10 08:38:01;;;;;;;2.03;1.48;;;;;;;26.97;25.66;94807.94;5020539;28;20198;-87
2021/05/10 08:40:27;;;;;;;4.88;1.55;;;;;;;27.14;25.83;94811.50;5019890;28;20222;-84
2021/05/10 08:42:54;;;;;;;2.28;1.40;;;;;;;27.35;25.78;94819.72;5020026;28;20678;-86
2021/05/10 08:45:22;;;;;;;4.32;1.60;;;;;;;27.50;25.97;94818.59;5018312;28;20210;-86
2021/05/10 08:47:48;;;;;;;3.22;1.40;;;;;;;27.56;24.66;94814.72;5019609;28;20207;-86
2021/05/10 08:50:15;;;;;;;3.03;1.35;;;;;;;27.72;25.40;94813.28;4999437;28;20564;-86
2021/05/10 08:52:41;;;;;;;2.45;1.20;;;;;;;27.89;25.38;94809.97;5015046;28;20626;-87
2021/05/10 08:55:12;;;;;;;3.13;1.63;;;;;;;27.95;24.61;94807.97;5017702;28;20214;-86
2021/05/10 08:57:38;;;;;;;3.13;1.40;;;;;;;28.05;24.46;94799.78;5018972;28;20253;-86
2021/05/10 09:00:06;;;;;;;6.15;1.58;;;;;;;28.18;24.49;94798.88;5017560;28;20223;-86
2021/05/10 09:02:33;;;;;;;5.72;1.50;;;;;;;28.21;24.46;94795.66;5017413;28;20265;-87
2021/05/10 09:05:16;;;;;;;4.20;1.42;;;;;;;28.31;24.13;94800.66;5015977;28;20202;-87
2021/05/10 09:07:43;;;;;;;2.05;1.30;;;;;;;28.32;23.94;94790.84;4995736;28;20203;-86
2021/05/10 09:10:11;;;;;;;1.85;1.45;;;;;;;28.28;23.79;94784.63;5005385;28;20348;-87
2021/05/10 09:12:45;;;;;;;3.60;1.50;;;;;;;28.39;24.16;94789.31;5016815;28;20206;-86
2021/05/10 09:15:20;;;;;;;3.40;1.42;;;;;;;28.58;23.49;94773.16;5017718;28;20197;-87
2021/05/10 09:17:48;;;;;;;6.57;1.45;;;;;;;28.59;23.65;94772.06;5016921;28;20210;-87
2021/05/10 09:20:15;;;;;;;3.10;1.40;;;;;;;28.71;23.61;94768.78;5017132;28;20706;-86
2021/05/10 09:22:53;;;;;;;2.28;1.48;;;;;;;28.68;23.68;94767.53;5017230;28;20238;-88
2021/05/10 09:25:23;;;;;;;5.35;1.40;;;;;;;28.51;23.63;94755.06;5016183;28;20226;-86
2021/05/10 09:28:08;;;;;;;2.83;1.20;;;;;;;28.49;24.80;94745.84;5019100;28;20214;-87
2021/05/10 09:30:35;;;;;;;2.72;1.40;;;;;;;28.35;24.20;94747.84;5018519;28;20210;-87
2021/05/10 09:33:04;;;;;;;3.67;1.40;;;;;;;28.47;24.36;94748.84;5018054;28;20246;-88
2021/05/10 09:35:34;;;;;;;2.45;1.25;;;;;;;28.88;24.86;94744.97;5017095;28;20219;-88
2021/05/10 09:38:09;;;;;;;3.03;1.52;;;;;;;29.13;24.42;94754.78;5017048;28;20631;-87
2021/05/10 09:40:50;;;;;;;4.53;1.42;;;;;;;29.22;23.82;94760.09;5018201;28;20230;-87
2021/05/10 09:43:21;;;;;;;2.30;1.27;;;;;;;29.23;22.73;94761.66;5015863;28;20222;-88
2021/05/10 09:45:49;;;;;;;2.70;1.60;;;;;;;29.37;22.86;94761.47;5017018;28;20837;-87
2021/05/10 09:48:27;;;;;;;5.57;1.50;;;;;;;29.50;22.59;94779.88;5017375;28;20217;-85
2021/05/10 09:50:55;;;;;;;1.95;1.30;;;;;;;29.50;22.24;94777.22;5017635;28;20206;-86
2021/05/10 09:53:47;;;;;;;6.20;1.80;;;;;;;29.72;23.02;94770.91;5017761;28;20201;-86
2021/05/10 09:56:27;;;;;;;2.75;1.42;;;;;;;29.86;22.59;94781.31;5018152;28;20322;-85
2021/05/10 09:58:54;;;;;;;2.55;1.33;;;;;;;29.85;22.46;94777.13;5013119;28;20234;-84
2021/05/10 10:01:22;;;;;;;6.00;1.35;;;;;;;29.93;22.50;94772.88;5013123;28;20222;-85
2021/05/10 10:04:03;;;;;;;2.65;1.55;;;;;;;30.00;22.94;94771.34;5011918;28;20701;-87
2021/05/10 10:06:31;;;;;;;3.05;1.40;;;;;;;30.13;21.97;94764.22;5015459;28;20218;-87
2021/05/10 10:08:58;;;;;;;1.65;1.30;;;;;;;30.27;22.42;94761.34;5017566;28;20206;-85
2021/05/10 10:11:26;;;;;;;2.67;1.75;;;;;;;30.39;21.85;94764.09;5017952;28;20226;-85
2021/05/10 10:13:59;;;;;;;3.47;1.40;;;;;;;30.47;20.59;94760.59;5017729;28;20701;-87
2021/05/10 10:16:33;;;;;;;3.80;1.40;;;;;;;30.37;20.87;94768.97;5016946;28;20230;-86
2021/05/10 10:19:01;;;;;;;3.10;1.40;;;;;;;30.35;20.23;94763.97;5018654;28;20726;-86
2021/05/10 10:21:35;;;;;;;3.95;1.50;;;;;;;30.27;20.86;94764.78;5018684;28;20664;-86
2021/05/10 10:24:09;;;;;;;3.53;1.30;;;;;;;30.15;20.69;94768.13;5015427;28;20244;-83
2021/05/10 10:26:38;;;;;;;4.55;1.20;;;;;;;29.86;20.91;94766.19;5012774;28;20389;-82
2021/05/10 10:29:10;;;;;;;4.05;1.40;;;;;;;29.84;21.37;94756.97;5013015;28;20207;-82
2021/05/10 10:31:41;;;;;;;4.40;1.70;;;;;;;29.97;21.51;94766.63;5012508;28;20202;-83
2021/05/10 10:34:13;;;;;;;1.73;1.20;;;;;;;30.22;21.18;94757.00;5012243;28;20203;-83
2021/05/10 10:36:44;;;;;;;3.00;1.20;;;;;;;30.40;22.35;94753.16;5013642;28;20234;-83
2021/05/10 10:39:11;;;;;;;3.05;1.40;;;;;;;30.42;21.71;94761.56;5013248;28;20598;-83
2021/05/10 10:41:52;;;;;;;2.83;1.35;;;;;;;30.48;21.68;94760.28;5016423;28;20272;-84
2021/05/10 10:44:31;;;;;;;3.28;1.52;;;;;;;30.38;20.75;94758.00;5017032;28;20210;-82
2021/05/10 10:46:59;;;;;;;4.55;1.20;;;;;;;30.14;21.22;94765.78;5017378;28;20226;-84
2021/05/10 10:49:31;;;;;;;4.30;1.40;;;;;;;30.19;21.62;94771.72;5016627;28;20210;-83
2021/05/10 10:51:57;;;;;;;1.30;1.17;;;;;;;30.27;20.38;94774.63;5016003;28;20195;-83
2021/05/10 10:54:25;;;;;;;2.72;1.50;;;;;;;30.40;20.14;94770.97;5016913;28;20474;-83
2021/05/10 10:56:53;;;;;;;3.22;1.25;;;;;;;30.47;20.40;94781.84;5016129;28;20223;-83
2021/05/10 10:59:24;;;;;;;2.85;1.55;;;;;;;30.60;19.83;94780.13;5016878;28;20203;-86
2021/05/10 11:01:50;;;;;;;1.67;1.42;;;;;;;30.83;19.84;94778.69;5022376;28;20218;-86
2021/05/10 11:04:28;;;;;;;3.40;1.35;;;;;;;30.88;19.95;94765.97;5023049;28;20202;-87
2021/05/10 11:06:56;;;;;;;3.20;1.30;;;;;;;30.94;19.71;94768.44;5023568;28;20265;-85
2021/05/10 11:09:50;;;;;;;3.47;1.52;;;;;;;30.87;20.54;94760.97;5022983;28;20211;-86
2021/05/10 11:12:46;;;;;;;4.82;1.50;;;;;;;30.94;20.34;94761.25;5019683;28;20199;-87
2021/05/10 11:15:12;;;;;;;4.40;1.50;;;;;;;31.08;21.22;94763.63;5022278;28;20210;-86
2021/05/10 11:17:52;;;;;;;5.30;1.45;;;;;;;31.12;20.21;94756.59;5023260;28;20245;-86
2021/05/10 11:20:37;;;;;;;4.05;1.50;;;;;;;31.19;19.84;94754.16;5022002;28;20291;-87
2021/05/10 11:23:34;;;;;;;2.80;1.33;;;;;;;31.29;19.80;94753.00;5020544;28;20205;-86
2021/05/10 11:26:03;;;;;;;3.22;1.38;;;;;;;31.28;19.64;94756.75;5021559;28;20234;-87
2021/05/10 11:28:56;;;;;;;2.47;1.30;;;;;;;31.23;18.89;94758.50;5020184;28;20207;-87
2021/05/10 11:31:37;;;;;;;2.05;1.20;;;;;;;31.32;18.65;94762.97;5020002;28;20199;-87
2021/05/10 11:34:15;;;;;;;2.13;1.20;;;;;;;31.52;19.34;94756.81;5021411;28;20511;-86
2021/05/10 11:36:48;;;;;;;3.42;1.70;;;;;;;31.61;19.68;94757.50;5022527;28;20313;-86
2021/05/10 11:39:24;;;;;;;3.53;1.60;;;;;;;31.71;19.05;94754.47;5020232;28;20209;-86
2021/05/10 11:41:56;;;;;;;2.67;1.33;;;;;;;31.66;18.72;94749.34;5020954;28;20257;-87
2021/05/10 11:44:24;;;;;;;2.90;1.45;;;;;;;31.60;19.38;94747.97;5019789;28;20237;-84
2021/05/10 11:46:52;;;;;;;5.53;1.60;;;;;;;31.58;18.87;94752.84;5022094;28;20472;-86
2021/05/10 11:49:39;;;;;;;3.20;1.80;;;;;;;31.42;19.05;94746.59;5020335;28;20203;-86
2021/05/10 11:52:09;;;;;;;4.55;1.40;;;;;;;31.50;19.94;94743.84;5011982;28;20206;-86